Time;durP1;ratioP1;P1;durP2;ratioP2;P2;SDS_P1;SDS_P2;PMS_P1;PMS_P2;Temp;Humidity;BMP_temperature;BMP_pressure;BME280_temperature;BME280_humidity;BME280_pressure;Samples;Min_cycle;Max_cycle;Signal;HPM_P1;HPM_P2
2023/01/23 00:01:01;;;;;;;21.52;9.77;;;;;;;;;;6339221;22;20034;-83
2023/01/23 00:03:28;;;;;;;21.63;9.35;;;;;;;;;;6338050;22;20515;-83
2023/01/23 00:06:08;;;;;;;22.17;10.00;;;;;;;;;;6336910;22;20104;-83
2023/01/23 00:08:34;;;;;;;26.52;10.30;;;;;;;;;;6335204;22;20115;-83
2023/01/23 00:11:10;;;;;;;25.92;10.55;;;;;;;;;;6335721;22;20126;-83
2023/01/23 00:13:37;;;;;;;20.88;9.48;;;;;;;;;;6335691;22;20033;-83
2023/01/23 00:16:07;;;;;;;27.35;10.25;;;;;;;;;;6335276;22;20478;-83
2023/01/23 00:18:34;;;;;;;22.67;9.52;;;;;;;;;;6334545;22;20106;-83
2023/01/23 00:21:04;;;;;;;24.23;10.85;;;;;;;;;;6333632;22;20032;-83
2023/01/23 00:23:31;;;;;;;28.17;10.35;;;;;;;;;;6333198;22;20106;-85
2023/01/23 00:26:07;;;;;;;25.38;10.25;;;;;;;;;;6334208;22;20058;-85
2023/01/23 00:28:34;;;;;;;29.48;10.90;;;;;;;;;;6334735;22;20102;-85
2023/01/23 00:31:01;;;;;;;24.50;10.77;;;;;;;;;;6334783;22;20030;-85
2023/01/23 00:33:27;;;;;;;24.10;10.30;;;;;;;;;;6334842;22;20023;-85
2023/01/23 00:35:56;;;;;;;27.10;11.40;;;;;;;;;;6334975;22;20332;-85
2023/01/23 00:38:26;;;;;;;25.70;10.48;;;;;;;;;;6336402;22;20016;-85
2023/01/23 00:40:55;;;;;;;30.83;10.52;;;;;;;;;;6336118;22;20031;-85
2023/01/23 00:43:24;;;;;;;24.77;10.90;;;;;;;;;;6309387;22;20026;-85
2023/01/23 00:45:50;;;;;;;23.35;10.50;;;;;;;;;;6335649;22;20023;-85
2023/01/23 00:48:17;;;;;;;27.15;10.20;;;;;;;;;;6335629;22;20030;-85
2023/01/23 00:50:54;;;;;;;28.42;10.45;;;;;;;;;;6307485;22;20019;-85
2023/01/23 00:53:33;;;;;;;22.48;10.35;;;;;;;;;;6309631;22;20026;-85
2023/01/23 00:56:11;;;;;;;;;;;;;;;;;;6334048;22;20309;-85
2023/01/23 00:58:40;;;;;;;23.23;9.70;;;;;;;;;;6333650;22;47110;-85
2023/01/23 01:01:15;;;;;;;27.42;9.90;;;;;;;;;;6335076;22;20213;-85
2023/01/23 01:03:58;;;;;;;24.45;10.70;;;;;;;;;;6335159;22;20098;-85
2023/01/23 01:06:29;;;;;;;24.85;10.88;;;;;;;;;;6334021;22;20676;-85
2023/01/23 01:09:05;;;;;;;31.00;10.45;;;;;;;;;;6333644;22;20023;-85
2023/01/23 01:11:32;;;;;;;31.90;10.52;;;;;;;;;;6337591;22;20794;-85
2023/01/23 01:14:00;;;;;;;24.10;9.90;;;;;;;;;;6337558;22;20019;-85
2023/01/23 01:16:26;;;;;;;27.08;10.20;;;;;;;;;;6336604;22;20030;-85
2023/01/23 01:18:53;;;;;;;21.58;10.50;;;;;;;;;;6337407;22;20377;-85
2023/01/23 01:21:20;;;;;;;23.88;10.52;;;;;;;;;;6310227;22;20067;-85
2023/01/23 01:23:46;;;;;;;28.88;10.75;;;;;;;;;;6311274;22;20026;-85
2023/01/23 01:26:12;;;;;;;24.08;10.32;;;;;;;;;;6345593;22;20115;-84
2023/01/23 01:28:40;;;;;;;26.60;9.93;;;;;;;;;;6351385;22;20015;-84
2023/01/23 01:31:09;;;;;;;25.92;10.40;;;;;;;;;;6352676;22;20016;-84
2023/01/23 01:33:36;;;;;;;29.50;10.25;;;;;;;;;;6351049;22;20022;-83
2023/01/23 01:36:06;;;;;;;30.13;10.20;;;;;;;;;;6324939;22;20014;-84
2023/01/23 01:38:32;;;;;;;25.10;11.15;;;;;;;;;;6348471;22;20019;-85
2023/01/23 01:40:59;;;;;;;22.80;10.93;;;;;;;;;;6343004;22;20055;-85
2023/01/23 01:43:26;;;;;;;25.83;10.27;;;;;;;;;;6315157;22;20471;-85
2023/01/23 01:46:11;;;;;;;29.95;10.05;;;;;;;;;;6342699;22;20472;-86
2023/01/23 01:48:56;;;;;;;23.40;10.68;;;;;;;;;;6342216;22;20066;-85
2023/01/23 01:51:29;;;;;;;27.33;10.20;;;;;;;;;;6343481;22;20057;-85
2023/01/23 01:54:08;;;;;;;25.67;9.55;;;;;;;;;;6344594;22;20011;-86
2023/01/23 01:56:40;;;;;;;26.52;11.00;;;;;;;;;;6343647;22;20030;-85
2023/01/23 01:59:08;;;;;;;29.00;10.45;;;;;;;;;;6341663;22;20028;-86
2023/01/23 02:01:34;;;;;;;23.20;10.75;;;;;;;;;;6342104;22;20023;-85
2023/01/23 02:04:01;;;;;;;26.20;9.57;;;;;;;;;;6342578;22;20035;-85
2023/01/23 02:06:28;;;;;;;26.20;11.05;;;;;;;;;;6315758;22;20042;-85
2023/01/23 02:08:58;;;;;;;27.65;10.88;;;;;;;;;;6342327;22;20495;-85
2023/01/23 02:11:24;;;;;;;25.15;10.38;;;;;;;;;;6312446;22;20084;-85
2023/01/23 02:13:54;;;;;;;29.08;10.05;;;;;;;;;;6341138;22;20055;-86
2023/01/23 02:16:22;;;;;;;26.00;10.27;;;;;;;;;;6341954;22;20007;-85
2023/01/23 02:18:52;;;;;;;25.55;10.27;;;;;;;;;;6312948;22;20027;-85
2023/01/23 02:21:20;;;;;;;30.17;9.93;;;;;;;;;;6340385;22;20023;-85
2023/01/23 02:23:53;;;;;;;28.33;10.80;;;;;;;;;;6313979;22;20015;-85
2023/01/23 02:26:22;;;;;;;25.00;11.57;;;;;;;;;;6341070;22;20033;-85
2023/01/23 02:28:50;;;;;;;26.60;10.57;;;;;;;;;;6341500;22;20007;-85
2023/01/23 02:31:16;;;;;;;32.45;11.45;;;;;;;;;;6339967;22;20460;-85
2023/01/23 02:33:51;;;;;;;25.80;11.07;;;;;;;;;;6340287;22;20073;-85
2023/01/23 02:36:19;;;;;;;28.55;10.07;;;;;;;;;;6340858;22;20103;-85
2023/01/23 02:38:53;;;;;;;26.63;9.82;;;;;;;;;;6340131;22;20024;-85
2023/01/23 02:41:24;;;;;;;24.42;10.85;;;;;;;;;;6338248;22;20643;-85
2023/01/23 02:43:52;;;;;;;24.67;10.70;;;;;;;;;;6339595;22;20027;-85
2023/01/23 02:46:19;;;;;;;26.10;11.00;;;;;;;;;;6339600;22;20459;-85
2023/01/23 02:48:46;;;;;;;27.33;10.68;;;;;;;;;;6311337;22;20103;-85
2023/01/23 02:51:12;;;;;;;29.55;10.57;;;;;;;;;;6338314;22;20103;-85
2023/01/23 02:53:41;;;;;;;38.40;11.73;;;;;;;;;;6311533;22;20027;-85
2023/01/23 02:56:07;;;;;;;28.13;11.48;;;;;;;;;;6338496;22;20063;-85
2023/01/23 03:01:19;;;;;;;29.73;11.45;;;;;;;;;;6339095;22;20534;-85
2023/01/23 03:03:45;;;;;;;33.83;11.63;;;;;;;;;;6337677;22;20113;-85
2023/01/23 03:06:12;;;;;;;30.17;10.80;;;;;;;;;;6339280;22;20027;-85
2023/01/23 03:08:46;;;;;;;35.15;11.65;;;;;;;;;;6311033;22;20023;-85
2023/01/23 03:11:13;;;;;;;30.38;11.40;;;;;;;;;;6311910;22;20030;-85
2023/01/23 03:13:40;;;;;;;31.33;11.68;;;;;;;;;;6339163;22;20483;-85
2023/01/23 03:16:06;;;;;;;35.03;12.63;;;;;;;;;;6339791;22;20062;-85
2023/01/23 03:18:33;;;;;;;32.83;12.18;;;;;;;;;;6310824;22;20080;-85
2023/01/23 03:21:11;;;;;;;31.63;11.57;;;;;;;;;;6337174;22;20033;-85
2023/01/23 03:23:43;;;;;;;39.60;11.98;;;;;;;;;;6336360;22;20027;-86
2023/01/23 03:26:10;;;;;;;34.17;12.13;;;;;;;;;;6339386;22;20023;-85
2023/01/23 03:31:22;;;;;;;32.45;10.95;;;;;;;;;;6337761;22;20059;-85
2023/01/23 03:33:48;;;;;;;33.95;12.20;;;;;;;;;;6338795;22;20514;-85
2023/01/23 03:36:14;;;;;;;25.63;10.85;;;;;;;;;;6338616;22;20081;-85
2023/01/23 03:41:23;;;;;;;31.13;11.80;;;;;;;;;;6310399;22;20027;-85
2023/01/23 03:41:30;;;;;;;32.20;12.35;;;;;;;;;;6337531;22;20595;-85
2023/01/23 03:43:56;;;;;;;28.15;11.32;;;;;;;;;;6339063;22;20169;-86
2023/01/23 03:46:23;;;;;;;34.28;12.63;;;;;;;;;;6337380;22;20452;-85
2023/01/23 03:48:50;;;;;;;31.70;11.77;;;;;;;;;;6336210;22;20023;-85
2023/01/23 03:51:16;;;;;;;35.92;11.48;;;;;;;;;;6336771;22;20118;-85
2023/01/23 03:53:42;;;;;;;23.85;11.10;;;;;;;;;;6337870;22;20027;-85
2023/01/23 03:56:09;;;;;;;28.08;11.57;;;;;;;;;;6339662;22;20016;-86
2023/01/23 03:58:35;;;;;;;27.92;11.35;;;;;;;;;;6337432;22;20023;-85
2023/01/23 04:01:06;;;;;;;27.23;10.73;;;;;;;;;;6339825;22;20029;-85
2023/01/23 04:03:32;;;;;;;29.23;12.02;;;;;;;;;;6309946;22;20038;-85
2023/01/23 04:05:59;;;;;;;30.70;11.80;;;;;;;;;;6339376;22;20038;-85
2023/01/23 04:08:25;;;;;;;29.60;11.55;;;;;;;;;;6338940;22;20478;-85
2023/01/23 04:10:59;;;;;;;30.48;10.80;;;;;;;;;;6338836;22;20038;-85
2023/01/23 04:13:26;;;;;;;27.50;11.77;;;;;;;;;;6309928;22;20054;-85
2023/01/23 04:15:52;;;;;;;26.25;10.98;;;;;;;;;;6339116;22;20110;-86
2023/01/23 04:18:18;;;;;;;28.95;11.60;;;;;;;;;;6338016;22;20106;-85
2023/01/23 04:20:45;;;;;;;25.45;10.68;;;;;;;;;;6338340;22;20027;-85
2023/01/23 04:23:11;;;;;;;28.25;11.27;;;;;;;;;;6336644;22;20049;-85
2023/01/23 04:25:38;;;;;;;24.52;10.73;;;;;;;;;;6337562;22;20069;-85
2023/01/23 04:28:04;;;;;;;27.23;11.57;;;;;;;;;;6308822;22;20019;-85
2023/01/23 04:30:30;;;;;;;31.48;12.00;;;;;;;;;;6337216;22;20023;-86
2023/01/23 04:32:57;;;;;;;29.67;11.70;;;;;;;;;;6309075;22;20077;-85
2023/01/23 04:35:23;;;;;;;29.08;11.65;;;;;;;;;;6336778;22;20027;-85
2023/01/23 04:37:50;;;;;;;31.33;11.77;;;;;;;;;;6337161;22;20032;-85
2023/01/23 04:40:16;;;;;;;29.92;12.40;;;;;;;;;;6309629;22;20491;-85
2023/01/23 04:42:43;;;;;;;37.30;12.48;;;;;;;;;;6308779;22;20574;-85
2023/01/23 04:45:10;;;;;;;34.80;12.25;;;;;;;;;;6335771;22;20019;-85
2023/01/23 04:47:36;;;;;;;34.75;13.02;;;;;;;;;;6337367;22;20023;-85
2023/01/23 04:50:03;;;;;;;34.50;11.18;;;;;;;;;;6309115;22;20055;-85
2023/01/23 04:52:29;;;;;;;28.05;11.73;;;;;;;;;;6336740;22;20019;-85
2023/01/23 04:54:56;;;;;;;25.58;11.68;;;;;;;;;;6337454;22;20034;-85
2023/01/23 04:57:26;;;;;;;26.73;10.77;;;;;;;;;;6336076;22;20106;-85
2023/01/23 04:59:52;;;;;;;30.83;12.60;;;;;;;;;;6337740;22;20023;-85
2023/01/23 05:02:18;;;;;;;28.23;12.02;;;;;;;;;;6308058;22;20037;-86
2023/01/23 05:04:45;;;;;;;26.38;12.77;;;;;;;;;;6335833;22;20027;-85
2023/01/23 05:07:12;;;;;;;27.42;11.73;;;;;;;;;;6336531;22;20098;-85
2023/01/23 05:09:38;;;;;;;30.38;11.93;;;;;;;;;;6336873;22;20138;-85
2023/01/23 05:12:05;;;;;;;30.67;11.88;;;;;;;;;;6336122;22;20023;-85
2023/01/23 05:14:31;;;;;;;34.88;12.45;;;;;;;;;;6336485;22;20028;-85
2023/01/23 05:16:57;;;;;;;23.65;10.77;;;;;;;;;;6336292;22;20031;-85
2023/01/23 05:19:24;;;;;;;27.90;11.88;;;;;;;;;;6336660;22;20023;-85
2023/01/23 05:21:50;;;;;;;31.23;12.45;;;;;;;;;;6335944;22;20627;-85
2023/01/23 05:24:16;;;;;;;26.60;11.55;;;;;;;;;;6336508;22;20102;-85
2023/01/23 05:26:43;;;;;;;29.20;12.40;;;;;;;;;;6336027;22;20027;-85
2023/01/23 05:29:09;;;;;;;26.83;11.27;;;;;;;;;;6335633;22;20069;-85
2023/01/23 05:31:35;;;;;;;31.98;12.07;;;;;;;;;;6335176;22;20486;-85
2023/01/23 05:34:02;;;;;;;32.00;11.95;;;;;;;;;;6306997;22;20029;-85
2023/01/23 05:36:28;;;;;;;28.48;12.93;;;;;;;;;;6335109;22;20114;-85
2023/01/23 05:38:55;;;;;;;33.85;12.02;;;;;;;;;;6335239;22;20027;-84
2023/01/23 05:41:22;;;;;;;30.13;11.93;;;;;;;;;;6335054;22;20108;-85
2023/01/23 05:43:50;;;;;;;27.05;11.77;;;;;;;;;;6334849;22;20023;-85
2023/01/23 05:46:17;;;;;;;30.88;12.60;;;;;;;;;;6335317;22;20046;-85
2023/01/23 05:48:43;;;;;;;31.67;11.68;;;;;;;;;;6334702;22;20423;-85
2023/01/23 05:51:10;;;;;;;31.00;12.20;;;;;;;;;;6335287;22;20080;-85
2023/01/23 05:53:36;;;;;;;25.98;11.32;;;;;;;;;;6335318;22;20027;-85
2023/01/23 05:56:08;;;;;;;30.52;11.90;;;;;;;;;;6309004;22;20525;-85
2023/01/23 05:58:43;;;;;;;;;;;;;;;;;;6306863;22;20019;-83
2023/01/23 06:01:10;;;;;;;28.27;11.57;;;;;;;;;;6334494;22;46333;-83
2023/01/23 06:03:36;;;;;;;24.33;11.13;;;;;;;;;;6334985;22;20038;-82
2023/01/23 06:06:03;;;;;;;30.63;12.50;;;;;;;;;;6335409;22;20030;-85
2023/01/23 06:08:29;;;;;;;28.65;12.32;;;;;;;;;;6334200;22;20106;-85
2023/01/23 06:10:59;;;;;;;39.40;12.45;;;;;;;;;;6334024;22;20023;-85
2023/01/23 06:13:28;;;;;;;31.98;12.23;;;;;;;;;;6335561;22;20023;-85
2023/01/23 06:15:58;;;;;;;29.42;12.70;;;;;;;;;;6335496;22;20023;-85
2023/01/23 06:18:25;;;;;;;34.83;13.27;;;;;;;;;;6334289;22;20023;-85
2023/01/23 06:20:56;;;;;;;29.23;11.98;;;;;;;;;;6333654;22;20023;-86
2023/01/23 06:23:25;;;;;;;32.45;12.10;;;;;;;;;;6340273;22;20106;-85
2023/01/23 06:25:51;;;;;;;30.23;12.85;;;;;;;;;;6334582;22;20027;-85
2023/01/23 06:28:18;;;;;;;37.45;12.88;;;;;;;;;;6334407;22;20113;-86
2023/01/23 06:30:44;;;;;;;33.15;13.20;;;;;;;;;;6334062;22;20023;-85
2023/01/23 06:33:10;;;;;;;31.10;12.40;;;;;;;;;;6306348;22;20023;-86
2023/01/23 06:35:37;;;;;;;37.10;14.00;;;;;;;;;;6308337;22;20031;-86
2023/01/23 06:38:03;;;;;;;27.58;12.05;;;;;;;;;;6332488;22;20019;-86
2023/01/23 06:40:30;;;;;;;32.45;12.77;;;;;;;;;;6334117;22;20077;-86
2023/01/23 06:42:56;;;;;;;32.10;12.23;;;;;;;;;;6333849;22;20032;-86
2023/01/23 06:45:22;;;;;;;33.60;13.23;;;;;;;;;;6333920;22;20102;-86
2023/01/23 06:47:50;;;;;;;29.67;12.38;;;;;;;;;;6333541;22;20034;-85
2023/01/23 06:50:17;;;;;;;33.67;12.85;;;;;;;;;;6334721;22;20530;-85
2023/01/23 06:52:43;;;;;;;30.65;12.32;;;;;;;;;;6334506;22;20069;-85
2023/01/23 06:55:10;;;;;;;31.30;12.85;;;;;;;;;;6333526;22;20149;-85
2023/01/23 06:57:39;;;;;;;28.17;12.38;;;;;;;;;;6305264;22;20023;-86
2023/01/23 07:00:06;;;;;;;33.38;13.73;;;;;;;;;;6333025;22;20019;-86
2023/01/23 07:02:33;;;;;;;33.25;13.05;;;;;;;;;;6333842;22;20031;-86
2023/01/23 07:04:59;;;;;;;35.78;13.38;;;;;;;;;;6334162;22;20028;-85
2023/01/23 07:07:26;;;;;;;33.55;14.00;;;;;;;;;;6333313;22;20713;-85
2023/01/23 07:09:54;;;;;;;32.75;13.07;;;;;;;;;;6333959;22;20111;-86
2023/01/23 07:12:21;;;;;;;34.53;14.23;;;;;;;;;;6334019;22;20050;-85
2023/01/23 07:14:47;;;;;;;34.35;13.32;;;;;;;;;;6333492;22;20023;-86
2023/01/23 07:17:13;;;;;;;33.35;13.23;;;;;;;;;;6334108;22;20023;-86
2023/01/23 07:19:40;;;;;;;30.23;13.55;;;;;;;;;;6304362;22;20106;-86
2023/01/23 07:22:06;;;;;;;37.38;13.70;;;;;;;;;;6333244;22;20495;-86
2023/01/23 07:24:33;;;;;;;29.70;13.18;;;;;;;;;;6305779;22;20047;-85
2023/01/23 07:26:59;;;;;;;39.40;13.95;;;;;;;;;;6333077;22;20034;-85
2023/01/23 07:29:25;;;;;;;31.88;13.02;;;;;;;;;;6334687;22;20063;-85
2023/01/23 07:31:52;;;;;;;32.35;13.35;;;;;;;;;;6307075;22;20027;-86
2023/01/23 07:34:19;;;;;;;39.17;14.07;;;;;;;;;;6335022;22;20027;-85
2023/01/23 07:36:45;;;;;;;28.80;13.18;;;;;;;;;;6307251;22;20471;-85
2023/01/23 07:39:12;;;;;;;36.90;14.45;;;;;;;;;;6335110;22;20518;-85
2023/01/23 07:41:38;;;;;;;32.03;14.30;;;;;;;;;;6333065;22;20059;-85
2023/01/23 07:44:15;;;;;;;35.25;14.52;;;;;;;;;;6332457;22;20026;-85
2023/01/23 07:46:45;;;;;;;39.63;14.32;;;;;;;;;;6304879;22;20421;-85
2023/01/23 07:49:12;;;;;;;38.23;14.37;;;;;;;;;;6333055;22;20136;-85
2023/01/23 07:51:38;;;;;;;40.95;14.90;;;;;;;;;;6333137;22;20061;-85
2023/01/23 07:54:05;;;;;;;37.03;14.30;;;;;;;;;;6307795;22;20526;-86
2023/01/23 07:56:32;;;;;;;35.90;15.05;;;;;;;;;;6307842;22;20027;-85
2023/01/23 07:58:59;;;;;;;35.65;15.32;;;;;;;;;;6334212;22;20023;-85
2023/01/23 08:01:25;;;;;;;35.45;13.75;;;;;;;;;;6337379;22;20553;-85
2023/01/23 08:03:52;;;;;;;29.85;13.50;;;;;;;;;;6334857;22;20027;-86
2023/01/23 08:06:18;;;;;;;34.15;14.65;;;;;;;;;;6335172;22;20023;-85
2023/01/23 08:08:48;;;;;;;36.97;14.52;;;;;;;;;;6306334;22;20027;-85
2023/01/23 08:11:15;;;;;;;36.85;15.55;;;;;;;;;;6334804;22;20069;-85
2023/01/23 08:13:41;;;;;;;35.30;15.02;;;;;;;;;;6334801;22;20051;-85
2023/01/23 08:16:08;;;;;;;36.05;15.07;;;;;;;;;;6335654;22;20027;-85
2023/01/23 08:18:37;;;;;;;35.28;14.95;;;;;;;;;;6334867;22;20027;-85
2023/01/23 08:21:04;;;;;;;33.35;14.88;;;;;;;;;;6334879;22;20039;-86
2023/01/23 08:23:31;;;;;;;36.15;16.10;;;;;;;;;;6335529;22;20027;-85
2023/01/23 08:26:00;;;;;;;39.83;15.60;;;;;;;;;;6334136;22;20023;-85
2023/01/23 08:28:26;;;;;;;35.40;15.80;;;;;;;;;;6334886;22;20014;-85
2023/01/23 08:30:53;;;;;;;35.97;14.43;;;;;;;;;;6335293;22;20459;-85
2023/01/23 08:33:20;;;;;;;31.80;15.02;;;;;;;;;;6334083;22;20031;-85
2023/01/23 08:35:47;;;;;;;34.35;15.77;;;;;;;;;;6335412;22;20574;-85
2023/01/23 08:38:14;;;;;;;34.40;14.63;;;;;;;;;;6335509;22;20030;-85
2023/01/23 08:40:40;;;;;;;30.80;14.32;;;;;;;;;;6335893;22;20037;-85
2023/01/23 08:43:09;;;;;;;40.63;14.80;;;;;;;;;;6335343;22;20061;-85
2023/01/23 08:45:35;;;;;;;37.78;14.93;;;;;;;;;;6307777;22;20522;-85
2023/01/23 08:48:02;;;;;;;29.08;14.00;;;;;;;;;;6334558;22;20028;-86
2023/01/23 08:50:30;;;;;;;37.22;14.35;;;;;;;;;;6309086;22;20023;-85
2023/01/23 08:52:58;;;;;;;29.83;13.52;;;;;;;;;;6307591;22;20015;-85
2023/01/23 08:55:27;;;;;;;33.22;14.85;;;;;;;;;;6335654;22;20136;-85
2023/01/23 08:57:53;;;;;;;34.72;14.13;;;;;;;;;;6307343;22;20019;-85
2023/01/23 09:00:20;;;;;;;33.83;13.93;;;;;;;;;;6307517;22;20055;-85
2023/01/23 09:02:47;;;;;;;33.30;15.20;;;;;;;;;;6335298;22;20094;-85
2023/01/23 09:05:13;;;;;;;35.88;15.38;;;;;;;;;;6307776;22;20049;-85
2023/01/23 09:07:40;;;;;;;36.15;14.68;;;;;;;;;;6335769;22;20062;-85
2023/01/23 09:10:06;;;;;;;30.70;13.27;;;;;;;;;;6306891;22;20023;-85
2023/01/23 09:12:33;;;;;;;37.65;15.68;;;;;;;;;;6334382;22;20070;-85
2023/01/23 09:14:59;;;;;;;31.23;14.73;;;;;;;;;;6335305;22;20031;-86
2023/01/23 09:17:26;;;;;;;35.63;14.80;;;;;;;;;;6335117;22;20050;-85
2023/01/23 09:19:52;;;;;;;33.60;15.77;;;;;;;;;;6308661;22;20112;-85
2023/01/23 09:22:25;;;;;;;40.08;14.48;;;;;;;;;;6337433;22;20106;-85
2023/01/23 09:25:06;;;;;;;31.90;13.82;;;;;;;;;;6335042;22;20015;-85
2023/01/23 09:27:33;;;;;;;29.95;13.23;;;;;;;;;;6333930;22;20023;-85
2023/01/23 09:29:59;;;;;;;34.78;14.93;;;;;;;;;;6334666;22;20383;-85
2023/01/23 09:32:26;;;;;;;29.95;14.05;;;;;;;;;;6334424;22;20400;-85
2023/01/23 09:34:53;;;;;;;31.10;14.23;;;;;;;;;;6334031;22;20454;-86
2023/01/23 09:37:20;;;;;;;31.15;13.68;;;;;;;;;;6306290;22;20377;-85
2023/01/23 09:39:46;;;;;;;32.42;14.05;;;;;;;;;;6336879;22;20094;-85
2023/01/23 09:42:16;;;;;;;30.63;14.23;;;;;;;;;;6338226;22;20283;-85
2023/01/23 09:44:49;;;;;;;29.33;13.82;;;;;;;;;;6334374;22;20027;-85
2023/01/23 09:47:18;;;;;;;32.65;15.13;;;;;;;;;;6334767;22;20027;-85
2023/01/23 09:49:51;;;;;;;28.48;13.73;;;;;;;;;;6334471;22;20447;-85
2023/01/23 09:52:20;;;;;;;34.67;14.25;;;;;;;;;;6334474;22;20023;-85
2023/01/23 09:54:47;;;;;;;31.00;15.02;;;;;;;;;;6335345;22;20027;-85
2023/01/23 09:57:44;;;;;;;32.35;13.98;;;;;;;;;;6334606;22;20026;-85
2023/01/23 10:00:16;;;;;;;28.10;13.32;;;;;;;;;;6262514;22;20026;-85
2023/01/23 10:02:43;;;;;;;25.52;12.45;;;;;;;;;;6335578;22;20077;-85
2023/01/23 10:05:14;;;;;;;31.13;12.70;;;;;;;;;;6335081;22;20019;-86
2023/01/23 10:07:59;;;;;;;32.03;13.90;;;;;;;;;;6306789;22;20027;-85
2023/01/23 10:10:52;;;;;;;30.73;13.73;;;;;;;;;;6306185;22;20043;-86
2023/01/23 10:13:38;;;;;;;28.98;13.23;;;;;;;;;;6327395;22;20023;-85
2023/01/23 10:16:12;;;;;;;29.38;12.80;;;;;;;;;;6332697;22;20376;-86
2023/01/23 10:18:43;;;;;;;28.02;12.82;;;;;;;;;;6333392;22;20023;-85
2023/01/23 10:21:28;;;;;;;27.15;12.82;;;;;;;;;;6333545;22;20396;-86
2023/01/23 10:24:12;;;;;;;29.05;12.93;;;;;;;;;;6333865;22;20027;-86
2023/01/23 10:26:41;;;;;;;28.08;13.13;;;;;;;;;;6333161;22;20023;-85
2023/01/23 10:29:28;;;;;;;29.60;13.10;;;;;;;;;;6307871;22;20034;-85
2023/01/23 10:31:56;;;;;;;27.58;12.32;;;;;;;;;;6336107;22;20023;-85
2023/01/23 10:34:33;;;;;;;30.83;13.55;;;;;;;;;;6333717;22;20023;-85
2023/01/23 10:37:12;;;;;;;26.80;12.00;;;;;;;;;;6333612;22;20031;-86
2023/01/23 10:39:59;;;;;;;27.80;12.60;;;;;;;;;;6306308;22;20031;-86
2023/01/23 10:42:31;;;;;;;22.95;12.57;;;;;;;;;;6334019;22;20065;-86
2023/01/23 10:45:16;;;;;;;23.40;11.00;;;;;;;;;;6334363;22;20034;-86
2023/01/23 10:47:45;;;;;;;26.83;12.57;;;;;;;;;;6333735;22;20023;-86
2023/01/23 10:50:33;;;;;;;23.55;11.20;;;;;;;;;;6333276;22;20020;-86
2023/01/23 10:53:07;;;;;;;24.08;12.07;;;;;;;;;;6333270;22;20073;-85
2023/01/23 10:55:34;;;;;;;28.63;12.25;;;;;;;;;;6331725;22;20612;-86
2023/01/23 10:58:02;;;;;;;24.67;11.65;;;;;;;;;;6332555;22;20023;-85
2023/01/23 11:00:28;;;;;;;24.88;11.48;;;;;;;;;;6306595;22;20031;-86
2023/01/23 11:02:54;;;;;;;27.42;11.55;;;;;;;;;;6333978;22;20516;-86
2023/01/23 11:05:30;;;;;;;24.27;11.25;;;;;;;;;;6334519;22;20815;-86
2023/01/23 11:08:03;;;;;;;22.25;10.65;;;;;;;;;;6335484;22;20031;-86
2023/01/23 11:10:29;;;;;;;22.90;11.10;;;;;;;;;;6306801;22;20331;-85
2023/01/23 11:12:55;;;;;;;24.17;10.80;;;;;;;;;;6335693;22;20019;-86
2023/01/23 11:15:28;;;;;;;25.33;11.80;;;;;;;;;;6335828;22;20038;-86
2023/01/23 11:17:56;;;;;;;23.38;10.82;;;;;;;;;;6334967;22;20509;-85
2023/01/23 11:20:24;;;;;;;34.30;11.95;;;;;;;;;;6338784;22;20483;-86
2023/01/23 11:23:02;;;;;;;23.02;10.75;;;;;;;;;;6334687;22;20110;-85
2023/01/23 11:25:30;;;;;;;23.85;11.95;;;;;;;;;;6307468;22;20051;-85
2023/01/23 11:27:58;;;;;;;27.15;11.73;;;;;;;;;;6335661;22;20027;-85
2023/01/23 11:30:28;;;;;;;24.50;11.25;;;;;;;;;;6335706;22;20038;-85
2023/01/23 11:32:55;;;;;;;;;;;;;;;;;;6335535;22;20023;-85
2023/01/23 11:35:40;;;;;;;19.95;9.85;;;;;;;;;;6306046;22;43959;-85
2023/01/23 11:38:10;;;;;;;21.33;10.88;;;;;;;;;;6306639;22;20605;-85
2023/01/23 11:40:36;;;;;;;22.77;10.57;;;;;;;;;;6334769;22;20110;-85
2023/01/23 11:43:07;;;;;;;25.45;11.80;;;;;;;;;;6334709;22;20406;-85
2023/01/23 11:45:49;;;;;;;27.00;11.23;;;;;;;;;;6306475;22;20049;-85
2023/01/23 11:48:19;;;;;;;24.17;11.05;;;;;;;;;;6335280;22;20732;-85
2023/01/23 11:50:50;;;;;;;23.70;11.43;;;;;;;;;;6336206;22;20066;-85
2023/01/23 11:53:36;;;;;;;24.33;10.88;;;;;;;;;;6334411;22;20035;-85
2023/01/23 11:56:14;;;;;;;22.08;10.98;;;;;;;;;;6338498;22;20452;-85
2023/01/23 11:59:11;;;;;;;24.02;11.57;;;;;;;;;;6333995;22;20458;-85
2023/01/23 12:01:49;;;;;;;25.05;11.52;;;;;;;;;;6312898;22;20027;-85
2023/01/23 12:04:28;;;;;;;25.13;11.03;;;;;;;;;;6334902;22;20468;-85
2023/01/23 12:06:54;;;;;;;23.10;11.20;;;;;;;;;;6334997;22;20109;-86
2023/01/23 12:09:27;;;;;;;23.70;10.45;;;;;;;;;;6333848;22;20023;-86
2023/01/23 12:12:02;;;;;;;21.92;10.80;;;;;;;;;;6334645;22;20098;-85
2023/01/23 12:14:46;;;;;;;23.33;10.50;;;;;;;;;;6305767;22;20526;-85
2023/01/23 12:20:17;;;;;;;19.83;9.77;;;;;;;;;;6213048;23;20025;-85
2023/01/23 12:22:47;;;;;;;20.20;9.52;;;;;;;;;;6211604;23;20024;-86
2023/01/23 12:25:16;;;;;;;20.92;9.50;;;;;;;;;;6234175;22;20029;-85
2023/01/23 12:28:13;;;;;;;20.25;9.50;;;;;;;;;;6218546;22;20028;-85
2023/01/23 12:30:58;;;;;;;20.55;9.93;;;;;;;;;;6242402;22;20021;-86
2023/01/23 12:33:45;;;;;;;22.00;10.35;;;;;;;;;;6241496;22;20773;-85
2023/01/23 12:36:32;;;;;;;21.10;10.15;;;;;;;;;;6241849;22;20107;-85
2023/01/23 12:39:13;;;;;;;21.27;10.00;;;;;;;;;;6241516;22;20083;-85
2023/01/23 12:41:42;;;;;;;20.38;10.38;;;;;;;;;;6241400;22;20478;-85
2023/01/23 12:44:11;;;;;;;20.95;10.77;;;;;;;;;;6241591;22;20573;-85
2023/01/23 12:46:42;;;;;;;20.63;10.25;;;;;;;;;;6241689;22;20516;-85
2023/01/23 12:49:27;;;;;;;19.60;9.88;;;;;;;;;;6240617;22;20033;-85
2023/01/23 12:51:59;;;;;;;21.55;9.95;;;;;;;;;;6240199;22;20100;-86
2023/01/23 12:54:33;;;;;;;21.27;10.20;;;;;;;;;;6241588;22;20463;-85
2023/01/23 12:57:01;;;;;;;20.15;9.77;;;;;;;;;;6241707;22;20634;-85
2023/01/23 12:59:30;;;;;;;20.60;9.75;;;;;;;;;;6240969;22;20020;-85
2023/01/23 13:02:03;;;;;;;23.05;10.18;;;;;;;;;;6240964;22;20323;-86
2023/01/23 13:04:48;;;;;;;21.55;9.95;;;;;;;;;;6241673;22;20625;-85
2023/01/23 13:07:17;;;;;;;19.65;9.65;;;;;;;;;;6214485;22;20107;-85
2023/01/23 13:10:13;;;;;;;18.48;9.32;;;;;;;;;;6215412;22;20059;-85
2023/01/23 13:12:40;;;;;;;19.45;9.90;;;;;;;;;;6215405;22;20016;-85
2023/01/23 13:15:15;;;;;;;17.58;9.63;;;;;;;;;;6214561;22;20021;-86
2023/01/23 13:17:57;;;;;;;14.77;8.05;;;;;;;;;;6239239;22;20091;-86
2023/01/23 13:23:25;;;;;;;17.35;8.68;;;;;;;;;;6240167;22;20025;-86
2023/01/23 13:26:27;;;;;;;18.60;8.70;;;;;;;;;;6213535;22;20083;-86
2023/01/23 13:28:56;;;;;;;19.58;8.90;;;;;;;;;;6093469;23;20037;-85
2023/01/23 13:31:24;;;;;;;19.23;9.18;;;;;;;;;;6217348;22;20051;-86
2023/01/23 13:33:52;;;;;;;18.00;9.40;;;;;;;;;;6240126;22;20024;-85
2023/01/23 13:36:28;;;;;;;20.05;9.35;;;;;;;;;;6240006;22;20016;-86
2023/01/23 13:39:13;;;;;;;17.77;8.73;;;;;;;;;;6240714;22;21447;-85
2023/01/23 13:41:39;;;;;;;20.83;9.60;;;;;;;;;;6213383;22;20020;-85
2023/01/23 13:44:09;;;;;;;19.40;8.65;;;;;;;;;;6240908;22;20025;-86
2023/01/23 13:46:41;;;;;;;19.73;9.80;;;;;;;;;;6241305;22;20120;-86
2023/01/23 13:49:50;;;;;;;17.33;8.80;;;;;;;;;;6117734;23;20037;-85
2023/01/23 13:58:37;;;;;;;18.63;8.77;;;;;;;;;;5918521;24;20114;-86
2023/01/23 14:07:47;;;;;;;17.13;8.63;;;;;;;;;;5889814;24;20071;-86
2023/01/23 14:10:27;;;;;;;17.85;8.80;;;;;;;;;;5865578;24;20447;-86
2023/01/23 14:13:09;;;;;;;18.88;8.93;;;;;;;;;;5848795;24;20029;-86
2023/01/23 14:16:10;;;;;;;17.30;9.00;;;;;;;;;;5846436;24;20105;-86
2023/01/23 14:18:51;;;;;;;;;;;;;;;;;;5953401;24;20090;-86
2023/01/23 14:21:40;;;;;;;16.37;8.10;;;;;;;;;;5845050;24;20000;-86
2023/01/23 14:24:39;;;;;;;16.48;8.00;;;;;;;;;;5952979;24;20040;-86
2023/01/23 14:27:09;;;;;;;15.35;7.60;;;;;;;;;;5915860;24;20068;-86
2023/01/23 14:29:38;;;;;;;14.48;7.40;;;;;;;;;;5953578;24;20025;-86
2023/01/23 14:32:04;;;;;;;19.13;8.55;;;;;;;;;;6055620;23;20086;-86
2023/01/23 14:34:37;;;;;;;17.67;8.70;;;;;;;;;;6110825;23;20077;-86
2023/01/23 14:37:05;;;;;;;16.42;8.82;;;;;;;;;;6152046;23;20105;-85
2023/01/23 14:39:33;;;;;;;22.10;9.48;;;;;;;;;;6204333;22;20063;-86
2023/01/23 14:42:00;;;;;;;17.08;8.40;;;;;;;;;;6249156;22;20031;-86
2023/01/23 14:44:28;;;;;;;17.40;9.20;;;;;;;;;;6246719;22;20067;-87
2023/01/23 14:46:57;;;;;;;18.48;8.93;;;;;;;;;;6249285;22;20021;-86
2023/01/23 14:49:32;;;;;;;16.70;8.70;;;;;;;;;;6254608;22;20049;-86
2023/01/23 14:52:00;;;;;;;17.23;9.57;;;;;;;;;;6255775;22;20068;-87
2023/01/23 14:54:27;;;;;;;18.98;8.95;;;;;;;;;;6260680;22;20033;-87
2023/01/23 14:57:00;;;;;;;22.63;9.85;;;;;;;;;;6263567;22;20080;-87
2023/01/23 14:59:32;;;;;;;21.20;10.25;;;;;;;;;;6257696;22;20041;-87
2023/01/23 15:02:00;;;;;;;19.75;9.52;;;;;;;;;;6258275;22;20028;-86
2023/01/23 15:04:35;;;;;;;20.20;10.07;;;;;;;;;;6257943;22;20017;-86